Wetterdaten: Woche 11.06.07 - 17.06.07 (KW24)
Datum Zeit Temperatur Luftfeuchte Luftdruck Niederschlag
11.06.2007 00:00 17,8 C 76 % 1016 hPa 6,0 l/m
11.06.2007 01:00 16,2 C 89 % 1016 hPa 2,0 l/m
11.06.2007 02:00 15,9 C 92 % 1016 hPa 0,0 l/m
11.06.2007 03:00 15,6 C 94 % 1016 hPa 0,0 l/m
11.06.2007 04:00 15,6 C 95 % 1016 hPa 0,0 l/m
11.06.2007 05:00 15,4 C 96 % 1015 hPa 0,0 l/m
11.06.2007 06:00 15,2 C 97 % 1015 hPa 0,0 l/m
11.06.2007 07:00 16,3 C 97 % 1015 hPa 0,0 l/m
11.06.2007 08:00 18,2 C 91 % 1015 hPa 0,0 l/m
11.06.2007 09:00 19,8 C 75 % 1015 hPa 0,0 l/m
11.06.2007 10:00 20,8 C 67 % 1015 hPa 0,0 l/m
11.06.2007 11:00 22,1 C 58 % 1015 hPa 0,0 l/m
11.06.2007 12:00 22,3 C 54 % 1015 hPa 0,0 l/m
11.06.2007 13:00 22,0 C 56 % 1016 hPa 0,0 l/m
11.06.2007 14:00 21,8 C 57 % 1015 hPa 0,0 l/m
11.06.2007 15:00 22,7 C 55 % 1015 hPa 0,0 l/m
11.06.2007 16:00 23,0 C 52 % 1015 hPa 0,0 l/m
11.06.2007 17:00 23,0 C 50 % 1014 hPa 0,0 l/m
11.06.2007 18:00 21,2 C 49 % 1014 hPa 0,0 l/m
11.06.2007 19:00 19,7 C 63 % 1014 hPa 1,0 l/m
11.06.2007 20:00 18,5 C 80 % 1015 hPa 0,0 l/m
11.06.2007 21:00 17,9 C 85 % 1015 hPa 0,0 l/m
11.06.2007 22:00 17,0 C 90 % 1015 hPa 0,0 l/m
11.06.2007 23:00 16,7 C 91 % 1015 hPa 1,0 l/m
12.06.2007 00:00 15,9 C 92 % 1015 hPa 0,0 l/m
12.06.2007 01:00 15,3 C 93 % 1015 hPa 0,0 l/m
12.06.2007 02:00 15,1 C 95 % 1015 hPa 0,0 l/m
12.06.2007 03:00 14,8 C 96 % 1014 hPa 0,0 l/m
12.06.2007 04:00 14,7 C 97 % 1014 hPa 0,0 l/m
12.06.2007 05:00 15,0 C 97 % 1014 hPa 0,0 l/m
12.06.2007 06:00 15,3 C 98 % 1014 hPa 1,0 l/m
12.06.2007 07:00 15,5 C 98 % 1014 hPa 0,0 l/m
12.06.2007 08:00 16,0 C 98 % 1015 hPa 0,0 l/m
12.06.2007 09:00 16,6 C 96 % 1015 hPa 0,0 l/m
12.06.2007 10:00 17,9 C 91 % 1015 hPa 0,0 l/m
12.06.2007 11:00 20,0 C 71 % 1014 hPa 0,0 l/m
12.06.2007 12:00 21,4 C 59 % 1014 hPa 0,0 l/m
12.06.2007 13:00 21,9 C 53 % 1014 hPa 0,0 l/m
12.06.2007 14:00 21,8 C 55 % 1013 hPa 0,0 l/m
12.06.2007 15:00 22,3 C 51 % 1012 hPa 0,0 l/m
12.06.2007 16:00 23,1 C 48 % 1012 hPa 0,0 l/m
12.06.2007 17:00 24,7 C 36 % 1011 hPa 0,0 l/m
12.06.2007 18:00 24,6 C 34 % 1011 hPa 0,0 l/m
12.06.2007 19:00 23,6 C 40 % 1011 hPa 0,0 l/m
12.06.2007 20:00 21,8 C 47 % 1012 hPa 0,0 l/m
12.06.2007 21:00 20,2 C 55 % 1012 hPa 0,0 l/m
12.06.2007 22:00 19,0 C 60 % 1013 hPa 0,0 l/m
12.06.2007 23:00 18,5 C 65 % 1013 hPa 0,0 l/m
13.06.2007 00:00 18,0 C 70 % 1013 hPa 0,0 l/m
13.06.2007 01:00 17,7 C 72 % 1013 hPa 0,0 l/m
13.06.2007 02:00 17,8 C 72 % 1012 hPa 0,0 l/m
13.06.2007 03:00 17,6 C 75 % 1012 hPa 0,0 l/m
13.06.2007 04:00 17,0 C 84 % 1012 hPa 0,0 l/m
13.06.2007 05:00 16,6 C 89 % 1012 hPa 0,0 l/m
13.06.2007 06:00 16,5 C 91 % 1012 hPa 0,0 l/m
13.06.2007 07:00 16,7 C 92 % 1012 hPa 0,0 l/m
13.06.2007 08:00 17,4 C 91 % 1012 hPa 0,0 l/m
13.06.2007 09:00 18,6 C 79 % 1012 hPa 0,0 l/m
13.06.2007 10:00 20,5 C 60 % 1012 hPa 0,0 l/m
13.06.2007 11:00 21,4 C 53 % 1012 hPa 0,0 l/m
13.06.2007 12:00 22,5 C 49 % 1012 hPa 0,0 l/m
13.06.2007 13:00 23,4 C 46 % 1012 hPa 0,0 l/m
13.06.2007 14:00 22,3 C 50 % 1011 hPa 0,0 l/m
13.06.2007 15:00 23,7 C 46 % 1011 hPa 0,0 l/m
13.06.2007 16:00 24,4 C 42 % 1011 hPa 0,0 l/m
13.06.2007 17:00 24,8 C 42 % 1011 hPa 0,0 l/m
13.06.2007 18:00 23,7 C 47 % 1011 hPa 0,0 l/m
13.06.2007 19:00 21,9 C 56 % 1011 hPa 0,0 l/m
13.06.2007 20:00 20,9 C 62 % 1011 hPa 0,0 l/m
13.06.2007 21:00 19,5 C 67 % 1011 hPa 0,0 l/m
13.06.2007 22:00 18,0 C 74 % 1012 hPa 0,0 l/m
13.06.2007 23:00 16,9 C 80 % 1012 hPa 0,0 l/m
14.06.2007 00:00 15,9 C 85 % 1011 hPa 0,0 l/m
14.06.2007 01:00 15,2 C 88 % 1011 hPa 0,0 l/m
14.06.2007 02:00 14,6 C 91 % 1011 hPa 0,0 l/m
14.06.2007 03:00 14,3 C 93 % 1011 hPa 0,0 l/m
14.06.2007 04:00 14,0 C 94 % 1011 hPa 0,0 l/m
14.06.2007 05:00 13,8 C 95 % 1011 hPa 0,0 l/m
14.06.2007 06:00 13,8 C 96 % 1011 hPa 0,0 l/m
14.06.2007 07:00 15,0 C 96 % 1011 hPa 0,0 l/m
14.06.2007 08:00 17,6 C 85 % 1011 hPa 0,0 l/m
14.06.2007 09:00 20,6 C 68 % 1011 hPa 0,0 l/m
14.06.2007 10:00 23,4 C 54 % 1011 hPa 0,0 l/m
14.06.2007 11:00 25,4 C 44 % 1011 hPa 0,0 l/m
14.06.2007 12:00 26,6 C 36 % 1011 hPa 0,0 l/m
14.06.2007 13:00 27,7 C 31 % 1010 hPa 0,0 l/m
14.06.2007 14:00 28,5 C 28 % 1010 hPa 0,0 l/m
14.06.2007 15:00 28,9 C 26 % 1009 hPa 0,0 l/m
14.06.2007 16:00 29,1 C 23 % 1009 hPa 0,0 l/m
14.06.2007 17:00 29,3 C 22 % 1008 hPa 0,0 l/m
14.06.2007 18:00 29,5 C 22 % 1007 hPa 0,0 l/m
14.06.2007 19:00 28,6 C 23 % 1007 hPa 0,0 l/m
14.06.2007 20:00 24,9 C 38 % 1007 hPa 0,0 l/m
14.06.2007 21:00 22,1 C 41 % 1007 hPa 0,0 l/m
14.06.2007 22:00 20,9 C 49 % 1008 hPa 0,0 l/m
14.06.2007 23:00 17,8 C 72 % 1010 hPa 0,0 l/m
15.06.2007 00:00 17,2 C 75 % 1010 hPa 0,0 l/m
15.06.2007 01:00 16,8 C 75 % 1009 hPa 0,0 l/m
15.06.2007 02:00 16,3 C 78 % 1009 hPa 0,0 l/m
15.06.2007 03:00 16,0 C 82 % 1009 hPa 0,0 l/m
15.06.2007 04:00 16,0 C 84 % 1009 hPa 0,0 l/m
15.06.2007 05:00 15,9 C 85 % 1009 hPa 0,0 l/m
15.06.2007 06:00 15,7 C 87 % 1008 hPa 0,0 l/m
15.06.2007 07:00 16,6 C 86 % 1009 hPa 0,0 l/m
15.06.2007 08:00 17,4 C 85 % 1009 hPa 0,0 l/m
15.06.2007 09:00 20,4 C 67 % 1009 hPa 0,0 l/m
15.06.2007 10:00 21,6 C 57 % 1009 hPa 0,0 l/m
15.06.2007 11:00 21,8 C 54 % 1008 hPa 0,0 l/m
15.06.2007 12:00 21,4 C 58 % 1008 hPa 0,0 l/m
15.06.2007 13:00 21,2 C 59 % 1008 hPa 0,0 l/m
15.06.2007 14:00 20,1 C 68 % 1007 hPa 0,0 l/m
15.06.2007 15:00 18,4 C 75 % 1008 hPa 0,0 l/m
15.06.2007 16:00 16,2 C 85 % 1009 hPa 2,0 l/m
15.06.2007 17:00 14,9 C 92 % 1010 hPa 5,0 l/m
15.06.2007 18:00 13,4 C 89 % 1011 hPa 1,0 l/m
15.06.2007 19:00 13,3 C 94 % 1012 hPa 2,0 l/m
15.06.2007 20:00 13,3 C 96 % 1012 hPa 0,0 l/m
15.06.2007 21:00 12,9 C 95 % 1013 hPa 0,0 l/m
15.06.2007 22:00 12,5 C 95 % 1013 hPa 0,0 l/m
15.06.2007 23:00 12,0 C 96 % 1013 hPa 0,0 l/m
16.06.2007 00:00 11,7 C 96 % 1013 hPa 0,0 l/m
16.06.2007 01:00 11,4 C 94 % 1013 hPa 0,0 l/m
16.06.2007 02:00 11,0 C 95 % 1013 hPa 0,0 l/m
16.06.2007 03:00 10,6 C 96 % 1013 hPa 0,0 l/m
16.06.2007 04:00 10,8 C 97 % 1013 hPa 0,0 l/m
16.06.2007 05:00 10,8 C 98 % 1013 hPa 0,0 l/m
16.06.2007 06:00 11,2 C 98 % 1013 hPa 0,0 l/m
16.06.2007 07:00 12,1 C 98 % 1013 hPa 0,0 l/m
16.06.2007 08:00 12,8 C 98 % 1014 hPa 0,0 l/m
16.06.2007 09:00 14,4 C 95 % 1014 hPa 0,0 l/m
16.06.2007 10:00 16,6 C 73 % 1014 hPa 0,0 l/m
16.06.2007 11:00 17,2 C 61 % 1014 hPa 0,0 l/m
16.06.2007 12:00 18,5 C 50 % 1014 hPa 0,0 l/m
16.06.2007 13:00 19,5 C 42 % 1013 hPa 0,0 l/m
16.06.2007 14:00 20,3 C 38 % 1013 hPa 0,0 l/m
16.06.2007 15:00 20,6 C 36 % 1013 hPa 0,0 l/m
16.06.2007 16:00 21,1 C 35 % 1012 hPa 0,0 l/m
16.06.2007 17:00 21,3 C 33 % 1012 hPa 0,0 l/m
16.06.2007 18:00 21,6 C 33 % 1012 hPa 0,0 l/m
16.06.2007 19:00 21,0 C 35 % 1012 hPa 0,0 l/m
16.06.2007 20:00 19,3 C 42 % 1012 hPa 0,0 l/m
16.06.2007 21:00 16,9 C 52 % 1013 hPa 0,0 l/m
16.06.2007 22:00 15,1 C 60 % 1013 hPa 0,0 l/m
16.06.2007 23:00 14,0 C 67 % 1013 hPa 0,0 l/m
17.06.2007 00:00 12,7 C 75 % 1013 hPa 0,0 l/m
17.06.2007 01:00 11,8 C 82 % 1013 hPa 0,0 l/m
17.06.2007 02:00 11,3 C 85 % 1013 hPa 0,0 l/m
17.06.2007 03:00 11,4 C 87 % 1013 hPa 0,0 l/m
17.06.2007 04:00 12,1 C 87 % 1013 hPa 0,0 l/m
17.06.2007 05:00 12,8 C 80 % 1013 hPa 0,0 l/m
17.06.2007 06:00 12,1 C 81 % 1013 hPa 0,0 l/m
17.06.2007 07:00 13,9 C 79 % 1013 hPa 0,0 l/m
17.06.2007 08:00 16,9 C 65 % 1013 hPa 0,0 l/m
17.06.2007 09:00 18,9 C 57 % 1013 hPa 0,0 l/m
17.06.2007 10:00 20,7 C 49 % 1013 hPa 0,0 l/m
17.06.2007 11:00 22,1 C 39 % 1013 hPa 0,0 l/m
17.06.2007 12:00 23,2 C 36 % 1013 hPa 0,0 l/m
17.06.2007 13:00 24,2 C 32 % 1013 hPa 0,0 l/m
17.06.2007 14:00 24,7 C 30 % 1012 hPa 0,0 l/m
17.06.2007 15:00 25,9 C 24 % 1012 hPa 0,0 l/m
17.06.2007 16:00 26,3 C 23 % 1011 hPa 0,0 l/m
17.06.2007 17:00 26,6 C 23 % 1010 hPa 0,0 l/m
17.06.2007 18:00 26,0 C 28 % 1010 hPa 0,0 l/m
17.06.2007 19:00 24,9 C 34 % 1009 hPa 0,0 l/m
17.06.2007 20:00 23,1 C 43 % 1009 hPa 0,0 l/m
17.06.2007 21:00 21,7 C 45 % 1010 hPa 0,0 l/m
17.06.2007 22:00 19,6 C 54 % 1010 hPa 0,0 l/m
17.06.2007 23:00 17,8 C 67 % 1010 hPa 0,0 l/m
Min-Datum _ 16.06.07 14.06.07 14.06.07 -
_ Min-Zeit 03:11 16:52 20:09 -
Minimum _ 10,6 C 21 % 1006 hPa -
Max-Datum _ 14.06.07 11.06.07 11.06.07 11.06.07
_ Max-Zeit 18:23 07:07 00:22 00:35
Maximum _ 29,7 C 98 % 1016 hPa 6,0 l/m
Durchschnitt _ 18,7 C 68 % 1012 hPa #21,0 l/m

Durchschnitt Minimum Temp.18,2 C
Durchschnitt Maximum Temp.19,2 C